Time;durP1;ratioP1;P1;durP2;ratioP2;P2;SDS_P1;SDS_P2;PMS_P1;PMS_P2;Temp;Humidity;BMP_temperature;BMP_pressure;BME280_temperature;BME280_humidity;BME280_pressure;Samples;Min_cycle;Max_cycle;Signal;HPM_P1;HPM_P2
2021/07/25 00:01:03;;;;;;;;;4.50;2.75;;;;;22.45;61.90;100530.19;5074281;27;47465;-68
2021/07/25 00:03:28;;;;;;;;;3.25;3.25;;;;;22.35;62.25;100511.47;5076273;28;45401;-69
2021/07/25 00:05:53;;;;;;;;;2.50;1.75;;;;;22.40;62.30;100514.56;5075876;28;45512;-69
2021/07/25 00:08:19;;;;;;;;;1.75;1.75;;;;;22.33;62.30;100510.78;5075231;27;45404;-69
2021/07/25 00:10:48;;;;;;;;;3.50;2.00;;;;;22.36;62.50;100518.50;5075080;27;45425;-68
2021/07/25 00:13:16;;;;;;;;;3.75;2.25;;;;;22.33;62.56;100520.63;5071853;27;45523;-68
2021/07/25 00:15:42;;;;;;;;;3.25;2.00;;;;;22.29;62.60;100514.75;5073993;28;45487;-68
2021/07/25 00:18:07;;;;;;;;;3.25;3.25;;;;;22.28;62.74;100512.19;5076836;27;45814;-69
2021/07/25 00:20:33;;;;;;;;;4.50;2.00;;;;;22.26;62.53;100512.34;5073380;27;45619;-69
2021/07/25 00:22:59;;;;;;;;;3.50;3.00;;;;;22.25;62.72;100515.19;5074879;27;45354;-68
2021/07/25 00:25:25;;;;;;;;;1.75;1.75;;;;;22.18;62.68;100520.25;5071866;27;47389;-68
2021/07/25 00:27:55;;;;;;;;;2.25;2.00;;;;;22.18;62.90;100522.94;5074899;27;45454;-68
2021/07/25 00:30:22;;;;;;;;;2.75;2.00;;;;;22.16;62.99;100514.22;5071781;27;45567;-69
2021/07/25 00:32:48;;;;;;;;;1.50;1.50;;;;;22.12;62.92;100516.34;5073608;28;45325;-68
2021/07/25 00:35:15;;;;;;;;;2.00;1.00;;;;;22.11;63.23;100516.50;5074074;28;45565;-68
2021/07/25 00:37:47;;;;;;;;;2.50;2.00;;;;;22.06;63.46;100510.69;5073577;27;45291;-68
2021/07/25 00:40:23;;;;;;;;;2.75;2.00;;;;;22.07;63.21;100509.69;5074490;27;45534;-68
2021/07/25 00:42:48;;;;;;;;;1.50;1.50;;;;;22.02;63.07;100503.94;5058518;28;45345;-68
2021/07/25 00:45:14;;;;;;;;;3.25;1.75;;;;;22.00;62.97;100498.75;5076360;27;45338;-68
2021/07/25 00:47:39;;;;;;;;;3.75;2.25;;;;;21.93;63.43;100494.97;5074052;27;56839;-68
2021/07/25 00:50:07;;;;;;;;;2.25;2.25;;;;;21.97;63.68;100506.22;5073356;27;45297;-69
2021/07/25 00:52:33;;;;;;;;;2.00;2.00;;;;;21.94;63.51;100499.34;5074368;27;45247;-68
2021/07/25 00:54:59;;;;;;;;;1.00;1.00;;;;;21.91;63.47;100496.09;5074348;28;46644;-68
2021/07/25 00:57:24;;;;;;;;;1.25;1.25;;;;;21.86;63.78;100502.72;5075455;27;45744;-68
2021/07/25 00:59:50;;;;;;;;;1.50;1.50;;;;;21.82;64.14;100498.66;5073724;28;45409;-68
2021/07/25 01:02:15;;;;;;;;;2.50;2.00;;;;;21.80;64.29;100497.94;5074085;27;45438;-68
2021/07/25 01:05:01;;;;;;;;;5.50;3.00;;;;;21.81;64.29;100499.63;5073448;27;46340;-68
2021/07/25 01:07:40;;;;;;;;;2.75;1.00;;;;;21.82;63.88;100495.13;5074010;28;45531;-68
2021/07/25 01:10:10;;;;;;;;;3.00;2.00;;;;;21.80;63.63;100486.41;5074400;27;45458;-68
2021/07/25 01:12:44;;;;;;;;;2.50;2.00;;;;;21.63;64.21;100467.44;5074430;27;45439;-68
2021/07/25 01:15:13;;;;;;;;;3.75;3.75;;;;;21.69;64.03;100486.56;5076150;27;46425;-68
2021/07/25 01:17:39;;;;;;;;;1.00;1.00;;;;;21.60;64.22;100481.09;5072404;27;45635;-68
2021/07/25 01:20:06;;;;;;;;;2.25;2.25;;;;;21.58;64.35;100480.41;5068798;27;45504;-68
2021/07/25 01:22:35;;;;;;;;;3.00;1.25;;;;;21.60;64.72;100481.09;5074198;27;45406;-68
2021/07/25 01:25:02;;;;;;;;;3.75;2.25;;;;;21.58;65.15;100484.91;5073783;27;46619;-68
2021/07/25 01:27:37;;;;;;;;;1.00;1.00;;;;;21.56;64.50;100478.84;5074833;27;45832;-68
2021/07/25 01:30:06;;;;;;;;;2.50;2.00;;;;;21.56;65.40;100487.72;5073973;27;45372;-68
2021/07/25 01:32:33;;;;;;;;;1.00;1.00;;;;;21.57;64.92;100486.72;5068951;27;45347;-68
2021/07/25 01:35:01;;;;;;;;;2.00;2.00;;;;;21.51;64.83;100476.63;5073968;27;46458;-68
2021/07/25 01:37:30;;;;;;;;;3.25;2.75;;;;;21.56;65.41;100492.19;5071913;27;45799;-69
2021/07/25 01:39:55;;;;;;;;;3.00;3.00;;;;;21.53;64.64;100490.69;5073922;27;45552;-68
2021/07/25 01:42:28;;;;;;;;;2.75;2.00;;;;;21.57;65.21;100499.25;5075789;27;45413;-68
2021/07/25 01:44:54;;;;;;;;;1.25;1.00;;;;;21.56;65.08;100495.75;5074512;28;46173;-68
2021/07/25 01:47:19;;;;;;;;;3.00;2.75;;;;;21.56;65.61;100489.53;5068313;27;45468;-68
2021/07/25 01:49:45;;;;;;;;;3.25;2.00;;;;;21.56;65.35;100493.06;5072997;27;45376;-68
2021/07/25 01:52:10;;;;;;;;;1.50;1.50;;;;;21.50;65.77;100487.44;5072003;28;59572;-69
2021/07/25 01:54:35;;;;;;;;;2.00;2.00;;;;;21.58;65.86;100493.75;5074540;27;45291;-68
2021/07/25 01:57:01;;;;;;;;;1.00;1.00;;;;;21.57;65.50;100488.56;5073294;28;45450;-68
2021/07/25 01:59:26;;;;;;;;;3.50;2.75;;;;;21.52;65.99;100489.00;5073033;27;45436;-68
2021/07/25 02:01:51;;;;;;;;;2.00;1.50;;;;;21.48;66.62;100487.59;5072842;27;47812;-68
2021/07/25 02:04:16;;;;;;;;;2.00;2.00;;;;;21.45;66.83;100485.19;5072816;28;65519;-68
2021/07/25 02:06:42;;;;;;;;;2.75;2.50;;;;;21.46;66.46;100478.88;5073401;27;45295;-68
2021/07/25 02:09:08;;;;;;;;;3.50;3.50;;;;;21.37;66.84;100471.69;5075287;27;45239;-68
2021/07/25 02:11:34;;;;;;;;;3.00;3.00;;;;;21.46;67.01;100481.53;5073224;28;45432;-68
2021/07/25 02:13:59;;;;;;;;;3.50;3.00;;;;;21.47;66.75;100477.88;5073327;28;46043;-68
2021/07/25 02:16:24;;;;;;;;;2.75;2.00;;;;;21.48;66.78;100479.56;5071134;27;45514;-68
2021/07/25 02:18:49;;;;;;;;;2.50;2.00;;;;;21.46;67.17;100476.19;5073233;27;45920;-68
2021/07/25 02:21:15;;;;;;;;;2.00;2.00;;;;;21.48;67.02;100471.53;5074232;27;45406;-68
2021/07/25 02:23:40;;;;;;;;;4.75;3.00;;;;;21.50;67.36;100480.25;5073253;28;46204;-68
2021/07/25 02:26:05;;;;;;;;;4.00;2.25;;;;;21.50;67.42;100472.22;5072714;28;48018;-68
2021/07/25 02:28:31;;;;;;;;;3.50;2.50;;;;;21.50;67.75;100466.03;5072860;28;45612;-68
2021/07/25 02:30:56;;;;;;;;;1.25;1.25;;;;;21.47;67.59;100469.00;5071786;28;62860;-68
2021/07/25 02:33:21;;;;;;;;;3.00;2.00;;;;;21.45;66.66;100471.81;5074766;27;45398;-68
2021/07/25 02:35:46;;;;;;;;;3.00;3.00;;;;;21.38;66.99;100467.19;5071439;27;54051;-68
2021/07/25 02:38:12;;;;;;;;;4.00;2.25;;;;;21.36;67.66;100484.22;5072741;28;45404;-69
2021/07/25 02:40:37;;;;;;;;;1.00;1.00;;;;;21.28;67.86;100472.50;5072549;27;47367;-69
2021/07/25 02:43:02;;;;;;;;;3.00;2.00;;;;;21.25;68.64;100465.63;5073313;27;45550;-68
2021/07/25 02:45:28;;;;;;;;;4.00;4.00;;;;;21.25;69.01;100462.13;5073427;27;45469;-69
2021/07/25 02:47:53;;;;;;;;;2.25;1.50;;;;;21.23;68.68;100466.75;5073629;28;45420;-68
2021/07/25 02:50:18;;;;;;;;;3.50;2.00;;;;;21.18;68.40;100455.63;5072066;28;45483;-68
2021/07/25 02:52:44;;;;;;;;;3.00;3.00;;;;;21.15;69.54;100458.59;5072514;27;45357;-68
2021/07/25 02:55:09;;;;;;;;;3.25;3.25;;;;;21.15;69.40;100466.63;5071177;28;45671;-68
2021/07/25 02:57:35;;;;;;;;;2.00;2.00;;;;;21.11;69.26;100461.53;5073215;27;45382;-68
2021/07/25 03:00:00;;;;;;;;;3.00;3.00;;;;;21.05;68.27;100458.59;5073721;28;53926;-69
2021/07/25 03:02:25;;;;;;;;;4.00;4.00;;;;;21.05;69.73;100458.59;5072865;28;45620;-69
2021/07/25 03:04:51;;;;;;;;;3.00;3.00;;;;;20.98;69.59;100455.63;5071892;28;45457;-68
2021/07/25 03:07:16;;;;;;;;;6.75;3.00;;;;;20.94;70.80;100459.56;5076175;27;45562;-69
2021/07/25 03:09:41;;;;;;;;;2.75;1.25;;;;;20.88;70.28;100459.25;5076168;27;45328;-68
2021/07/25 03:12:07;;;;;;;;;4.00;4.00;;;;;20.79;70.16;100456.47;5077876;27;45327;-68
2021/07/25 03:14:32;;;;;;;;;4.00;2.25;;;;;20.81;70.83;100467.00;5076072;27;45447;-68
2021/07/25 03:16:57;;;;;;;;;3.00;2.75;;;;;20.74;71.28;100461.38;5075893;28;45440;-68
2021/07/25 03:19:23;;;;;;;;;5.00;3.50;;;;;20.71;71.09;100455.44;5074879;27;50501;-68
2021/07/25 03:21:48;;;;;;;;;6.00;3.00;;;;;20.62;71.16;100443.78;5075727;28;47618;-68
2021/07/25 03:24:14;;;;;;;;;2.25;2.25;;;;;20.60;71.36;100440.38;5077704;27;45318;-68
2021/07/25 03:26:39;;;;;;;;;3.25;2.75;;;;;20.65;71.47;100454.16;5075780;28;45366;-68
2021/07/25 03:29:05;;;;;;;;;5.75;3.75;;;;;20.59;71.19;100452.91;5075150;27;51372;-68
2021/07/25 03:31:30;;;;;;;;;7.00;5.00;;;;;20.54;72.09;100448.94;5075558;28;46274;-68
2021/07/25 03:33:55;;;;;;;;;4.75;3.25;;;;;20.51;71.81;100451.88;5073934;28;48404;-68
2021/07/25 03:36:22;;;;;;;;;3.50;2.50;;;;;20.50;72.02;100450.19;5077686;27;45543;-68
2021/07/25 03:38:47;;;;;;;;;6.75;3.25;;;;;20.44;72.28;100448.06;5076057;27;45408;-68
2021/07/25 03:41:13;;;;;;;;;4.00;2.50;;;;;20.42;72.51;100453.53;5075448;28;45407;-68
2021/07/25 03:43:38;;;;;;;;;3.75;3.75;;;;;20.37;72.57;100444.25;5074762;27;45432;-68
2021/07/25 03:46:03;;;;;;;;;3.75;3.75;;;;;20.40;72.29;100447.47;5075626;28;49318;-68
2021/07/25 03:48:29;;;;;;;;;3.00;3.00;;;;;20.40;73.12;100450.13;5076371;27;45609;-68
2021/07/25 03:50:55;;;;;;;;;3.00;3.00;;;;;20.37;72.48;100446.91;5075714;27;45797;-69
2021/07/25 03:53:21;;;;;;;;;4.75;4.00;;;;;20.32;72.48;100447.31;5073980;27;45456;-68
2021/07/25 03:55:47;;;;;;;;;2.25;2.00;;;;;20.28;72.77;100443.22;5075678;27;45311;-68
2021/07/25 03:58:12;;;;;;;;;3.25;3.25;;;;;20.25;72.56;100446.16;5074477;27;45435;-68
2021/07/25 04:00:38;;;;;;;;;4.75;4.75;;;;;20.20;73.40;100440.38;5075577;27;45499;-69
2021/07/25 04:03:03;;;;;;;;;4.25;3.25;;;;;20.16;73.46;100445.16;5077211;27;45412;-68
2021/07/25 04:05:28;;;;;;;;;5.25;4.00;;;;;20.15;73.20;100443.47;5075217;27;45910;-69
2021/07/25 04:07:54;;;;;;;;;4.00;2.00;;;;;20.12;73.96;100430.38;5074885;27;56712;-68
2021/07/25 04:10:19;;;;;;;;;4.50;3.00;;;;;20.12;73.95;100438.41;5073751;28;47242;-69
2021/07/25 04:12:45;;;;;;;;;3.00;3.00;;;;;20.06;73.28;100425.59;5073958;27;45504;-69
2021/07/25 04:15:10;;;;;;;;;2.75;2.75;;;;;20.11;74.07;100435.88;5075789;28;45330;-69
2021/07/25 04:17:36;;;;;;;;;6.50;4.00;;;;;20.12;73.54;100442.88;5074772;27;45502;-69
2021/07/25 04:20:03;;;;;;;;;4.50;3.75;;;;;20.14;73.42;100446.25;5074374;27;46920;-69
2021/07/25 04:22:35;;;;;;;;;4.25;4.25;;;;;20.10;73.99;100439.50;5074439;27;45515;-68
2021/07/25 04:25:00;;;;;;;;;2.75;2.75;;;;;20.06;73.42;100431.78;5071724;27;45367;-69
2021/07/25 04:27:26;;;;;;;;;6.50;4.75;;;;;20.07;74.57;100440.63;5088239;27;45494;-69
2021/07/25 04:29:52;;;;;;;;;3.25;3.25;;;;;20.07;73.98;100437.94;5075263;27;46334;-68
2021/07/25 04:32:18;;;;;;;;;4.50;4.50;;;;;20.02;74.01;100426.84;5073204;27;45724;-69
2021/07/25 04:34:45;;;;;;;;;6.25;4.75;;;;;20.01;74.12;100439.34;5074828;27;45366;-69
2021/07/25 04:37:22;;;;;;;;;3.00;3.00;;;;;20.06;74.09;100444.28;5075199;28;45429;-69
2021/07/25 04:39:48;;;;;;;;;3.25;3.00;;;;;20.05;73.67;100437.25;5074545;27;46575;-69
2021/07/25 04:42:16;;;;;;;;;4.75;3.00;;;;;20.09;73.62;100443.97;5076380;27;45647;-69
2021/07/25 04:44:46;;;;;;;;;3.75;3.00;;;;;20.04;73.92;100440.88;5074335;27;45466;-69
2021/07/25 04:47:19;;;;;;;;;5.00;4.00;;;;;20.00;73.94;100432.31;5074346;27;45461;-69
2021/07/25 04:50:06;;;;;;;;;6.50;5.00;;;;;19.97;74.42;100440.56;5073904;28;45490;-68
2021/07/25 04:52:43;;;;;;;;;4.00;3.75;;;;;19.95;75.13;100439.88;5073182;27;45789;-69
2021/07/25 04:55:11;;;;;;;;;3.75;3.00;;;;;19.99;75.06;100438.63;5074215;28;45402;-69
2021/07/25 04:57:42;;;;;;;;;4.25;2.75;;;;;20.00;74.58;100445.66;5072995;28;45470;-69
2021/07/25 05:00:13;;;;;;;;;5.00;4.00;;;;;20.01;74.28;100452.66;5076214;27;46121;-69
2021/07/25 05:02:40;;;;;;;;;3.00;3.00;;;;;19.98;74.50;100436.06;5074139;27;45690;-69
2021/07/25 05:05:06;;;;;;;;;6.75;4.00;;;;;20.00;75.01;100444.81;5074888;27;45474;-69
2021/07/25 05:07:38;;;;;;;;;4.25;4.25;;;;;19.95;75.08;100442.53;5074206;27;45628;-69
2021/07/25 05:10:04;;;;;;;;;6.00;4.00;;;;;19.97;75.50;100448.56;5072341;27;45398;-69
2021/07/25 05:12:37;;;;;;;;;4.00;2.75;;;;;19.97;75.49;100443.25;5073642;28;45460;-68
2021/07/25 05:15:06;;;;;;;;;2.50;2.50;;;;;19.99;74.83;100457.31;5074502;28;45339;-68
2021/07/25 05:17:52;;;;;;;;;7.50;5.00;;;;;19.98;74.88;100452.09;5074017;27;45387;-68
2021/07/25 05:20:19;;;;;;;;;4.25;3.25;;;;;19.94;75.45;100446.19;5073250;27;46813;-69
2021/07/25 05:23:10;;;;;;;;;6.25;4.00;;;;;19.95;74.95;100447.88;5073453;27;45741;-69
2021/07/25 05:25:40;;;;;;;;;4.00;3.25;;;;;19.92;75.69;100450.78;5008939;28;45599;-68
2021/07/25 05:28:06;;;;;;;;;3.50;3.50;;;;;19.90;75.32;100455.44;5010827;28;45372;-69
2021/07/25 05:30:32;;;;;;;;;3.00;3.00;;;;;19.91;75.60;100456.28;5012191;28;46579;-69
2021/07/25 05:32:57;;;;;;;;;6.00;5.50;;;;;19.92;75.79;100456.13;5012641;28;45724;-68
2021/07/25 05:35:23;;;;;;;;;5.50;4.75;;;;;19.94;75.88;100454.19;5009918;28;45527;-68
2021/07/25 05:37:48;;;;;;;;;3.00;3.00;;;;;19.97;75.52;100459.25;5010081;28;45366;-69
2021/07/25 05:40:15;;;;;;;;;5.00;5.00;;;;;20.04;76.08;100456.88;5009148;28;46240;-68
2021/07/25 05:42:41;;;;;;;;;5.50;3.75;;;;;20.11;75.24;100462.56;5011233;28;45298;-69
2021/07/25 05:45:08;;;;;;;;;5.25;4.50;;;;;20.13;75.19;100452.56;5011752;28;45461;-69
2021/07/25 05:47:35;;;;;;;;;4.00;4.00;;;;;20.02;75.98;100433.00;5009325;28;45479;-69
2021/07/25 05:50:00;;;;;;;;;3.50;3.50;;;;;20.15;75.58;100442.59;5010606;28;45724;-69
2021/07/25 05:52:25;;;;;;;;;5.00;3.25;;;;;20.21;75.50;100447.44;4995308;28;45463;-69
2021/07/25 05:54:51;;;;;;;;;4.00;4.00;;;;;20.27;75.53;100436.22;5010496;28;45587;-69
2021/07/25 05:57:16;;;;;;;;;7.00;4.00;;;;;20.39;75.43;100439.59;5012819;28;45395;-69
2021/07/25 05:59:41;;;;;;;;;4.75;2.50;;;;;20.45;74.94;100439.06;5009568;28;45455;-69
2021/07/25 06:02:07;;;;;;;;;2.50;2.00;;;;;20.46;74.85;100427.38;5037842;27;57242;-68
2021/07/25 06:04:32;;;;;;;;;3.75;3.75;;;;;20.40;74.40;100414.59;5073409;27;45438;-69
2021/07/25 06:06:57;;;;;;;;;4.00;3.75;;;;;20.42;74.91;100421.50;5073436;27;45500;-69
2021/07/25 06:09:24;;;;;;;;;5.50;4.00;;;;;20.53;73.93;100434.75;5074271;28;46558;-69
2021/07/25 06:11:50;;;;;;;;;3.25;2.50;;;;;20.68;74.56;100427.22;5072678;28;45671;-69
2021/07/25 06:14:15;;;;;;;;;4.00;4.00;;;;;20.72;74.09;100425.94;5073223;27;45385;-69
2021/07/25 06:16:41;;;;;;;;;4.00;4.00;;;;;20.83;73.58;100438.34;5072956;27;45328;-69
2021/07/25 06:19:06;;;;;;;;;4.25;4.25;;;;;20.93;73.73;100447.16;5072428;28;55997;-69
2021/07/25 06:21:31;;;;;;;;;4.75;3.75;;;;;21.02;73.64;100451.69;5071745;28;57910;-69
2021/07/25 06:23:57;;;;;;;;;5.00;4.50;;;;;21.08;73.03;100452.94;5073484;28;45517;-69
2021/07/25 06:26:23;;;;;;;;;4.50;3.75;;;;;21.09;73.05;100444.81;5073087;27;45309;-69
2021/07/25 06:28:49;;;;;;;;;3.75;3.75;;;;;21.16;72.48;100441.56;5073033;27;48057;-69
2021/07/25 06:31:15;;;;;;;;;4.00;3.75;;;;;21.27;72.75;100450.28;5073400;27;45769;-68
2021/07/25 06:33:40;;;;;;;;;4.50;4.00;;;;;21.43;72.77;100446.22;5073081;27;45982;-69
2021/07/25 06:36:10;;;;;;;;;5.25;2.25;;;;;21.54;72.39;100459.44;5074605;27;45515;-69
2021/07/25 06:38:36;;;;;;;;;5.25;3.00;;;;;21.53;71.45;100450.56;5074827;27;45467;-69
2021/07/25 06:41:01;;;;;;;;;5.00;3.50;;;;;21.57;71.38;100451.97;5076703;27;45255;-68
2021/07/25 06:43:26;;;;;;;;;4.75;4.00;;;;;21.55;71.62;100442.38;5075860;27;55137;-69
2021/07/25 06:45:52;;;;;;;;;5.75;4.75;;;;;21.61;71.42;100448.03;5076649;27;45384;-69
2021/07/25 06:48:28;;;;;;;;;4.25;4.00;;;;;21.61;71.00;100448.03;5078137;27;45437;-69
2021/07/25 06:50:58;;;;;;;;;5.00;4.00;;;;;21.61;71.19;100453.38;5076574;28;45393;-69
2021/07/25 06:53:26;;;;;;;;;4.50;3.50;;;;;21.60;71.05;100454.34;5076365;27;45306;-69
2021/07/25 06:55:53;;;;;;;;;4.75;4.00;;;;;21.78;71.18;100459.81;5076758;27;45310;-69
2021/07/25 06:58:18;;;;;;;;;6.75;3.75;;;;;22.15;70.71;100442.94;5076262;27;45604;-69
2021/07/25 07:00:44;;;;;;;;;7.25;6.00;;;;;22.30;69.43;100451.34;5076149;27;45260;-69
2021/07/25 07:03:09;;;;;;;;;5.75;4.25;;;;;22.24;69.92;100441.19;5077330;27;45515;-69
2021/07/25 07:05:35;;;;;;;;;4.00;4.00;;;;;22.18;69.72;100452.50;5075725;27;45422;-69
2021/07/25 07:08:02;;;;;;;;;5.25;3.75;;;;;22.09;70.26;100456.91;5074432;27;46549;-69
2021/07/25 07:10:30;;;;;;;;;6.00;4.50;;;;;22.04;70.16;100462.69;5075898;27;45392;-69
2021/07/25 07:12:57;;;;;;;;;5.75;5.00;;;;;21.94;69.71;100469.06;5076121;27;45371;-69
2021/07/25 07:15:24;;;;;;;;;6.00;4.25;;;;;21.91;70.24;100464.81;5076832;28;45360;-69
2021/07/25 07:17:51;;;;;;;;;5.75;5.00;;;;;22.01;69.78;100465.63;5074585;28;46611;-69
2021/07/25 07:20:18;;;;;;;;;5.75;5.75;;;;;21.98;69.92;100449.91;5075184;27;45686;-69
2021/07/25 07:22:59;;;;;;;;;5.50;5.50;;;;;22.00;69.61;100463.13;5075772;27;45375;-69
2021/07/25 07:25:27;;;;;;;;;5.50;5.50;;;;;22.03;70.01;100461.00;5075887;27;45345;-69
2021/07/25 07:27:53;;;;;;;;;7.00;5.25;;;;;21.98;69.78;100459.72;5074113;27;47698;-69
2021/07/25 07:30:19;;;;;;;;;6.25;6.25;;;;;22.05;69.98;100469.72;5077748;27;45365;-69
2021/07/25 07:32:44;;;;;;;;;6.25;5.25;;;;;22.18;69.94;100465.88;5075677;27;45338;-69
2021/07/25 07:35:10;;;;;;;;;6.50;5.00;;;;;22.25;69.57;100464.31;5075183;28;45385;-69
2021/07/25 07:37:35;;;;;;;;;11.25;6.00;;;;;22.32;69.14;100462.72;5075678;27;45481;-69
2021/07/25 07:40:00;;;;;;;;;5.75;5.25;;;;;22.41;69.25;100461.84;5074971;27;45338;-69
2021/07/25 07:42:26;;;;;;;;;7.75;6.50;;;;;22.36;68.62;100451.59;5077540;27;45310;-68
2021/07/25 07:44:51;;;;;;;;;7.50;7.50;;;;;22.26;68.43;100455.31;5076093;27;45645;-69
2021/07/25 07:47:17;;;;;;;;;7.50;6.50;;;;;22.13;68.65;100456.50;5073387;27;46109;-68
2021/07/25 07:49:42;;;;;;;;;6.25;6.25;;;;;22.08;68.37;100460.53;5073751;28;45688;-69
2021/07/25 07:52:07;;;;;;;;;7.50;6.25;;;;;22.05;67.96;100467.03;5075386;28;45460;-69
2021/07/25 07:54:34;;;;;;;;;8.00;7.75;;;;;21.99;68.09;100470.31;5076093;27;45396;-69
2021/07/25 07:56:59;;;;;;;;;7.50;5.50;;;;;21.97;68.48;100466.06;5077129;28;45592;-69
2021/07/25 07:59:25;;;;;;;;;9.75;6.00;;;;;21.90;68.44;100463.16;5075049;28;45391;-68
2021/07/25 08:01:51;;;;;;;;;10.25;9.00;;;;;21.87;68.52;100463.44;5075234;27;45327;-69
2021/07/25 08:04:16;;;;;;;;;6.00;6.00;;;;;21.83;68.63;100448.69;5074897;27;45806;-68
2021/07/25 08:06:41;;;;;;;;;9.00;7.00;;;;;22.00;68.63;100457.78;5073233;28;58193;-68
2021/07/25 08:09:07;;;;;;;;;5.25;5.25;;;;;22.04;68.50;100460.00;5075082;28;58217;-69
2021/07/25 08:11:32;;;;;;;;;7.50;7.00;;;;;22.07;68.42;100462.38;5075085;27;46050;-69
2021/07/25 08:13:57;;;;;;;;;6.75;6.75;;;;;22.07;68.62;100466.88;5074839;28;48982;-69
2021/07/25 08:16:23;;;;;;;;;6.50;6.25;;;;;22.00;68.29;100471.16;5069817;28;47668;-69
2021/07/25 08:18:48;;;;;;;;;8.25;8.25;;;;;21.92;68.23;100466.50;5074036;28;54026;-69
2021/07/25 08:21:13;;;;;;;;;7.50;6.50;;;;;21.92;68.61;100477.22;5077078;27;45445;-68
2021/07/25 08:23:39;;;;;;;;;9.50;6.00;;;;;21.89;68.75;100466.81;5070403;27;45600;-69
2021/07/25 08:26:04;;;;;;;;;9.25;8.00;;;;;21.89;68.87;100472.16;5073719;27;45450;-69
2021/07/25 08:28:30;;;;;;;;;9.25;6.75;;;;;21.92;68.59;100463.84;5074640;28;45432;-69
2021/07/25 08:30:56;;;;;;;;;9.75;7.75;;;;;22.06;68.56;100460.69;5072223;28;45987;-69
2021/07/25 08:33:21;;;;;;;;;7.00;5.75;;;;;22.22;68.73;100459.25;5076515;27;45365;-69
2021/07/25 08:35:47;;;;;;;;;7.75;7.00;;;;;22.40;67.75;100465.53;5074798;28;48684;-69
2021/07/25 08:38:13;;;;;;;;;8.50;8.50;;;;;22.48;67.49;100460.25;5073925;27;57269;-69
2021/07/25 08:40:39;;;;;;;;;9.50;9.25;;;;;22.61;66.92;100466.09;5074740;27;45326;-69
2021/07/25 08:43:12;;;;;;;;;10.00;9.00;;;;;22.64;67.09;100460.44;5074630;27;45597;-69
2021/07/25 08:45:41;;;;;;;;;7.50;7.50;;;;;22.68;66.92;100460.97;5074229;27;46069;-68
2021/07/25 08:48:16;;;;;;;;;8.50;7.25;;;;;22.78;66.65;100460.94;5074358;28;45432;-70
2021/07/25 08:51:01;;;;;;;;;12.25;8.00;;;;;22.88;66.54;100467.09;5074444;27;45545;-69
2021/07/25 08:53:27;;;;;;;;;12.00;8.00;;;;;23.00;66.21;100451.63;5074392;27;45479;-69
2021/07/25 08:55:53;;;;;;;;;10.25;7.50;;;;;23.20;65.64;100457.69;5074269;27;45632;-69
2021/07/25 08:58:22;;;;;;;;;10.00;7.75;;;;;23.28;65.64;100444.31;5074203;28;45294;-69
2021/07/25 09:00:50;;;;;;;;;8.00;8.00;;;;;23.37;64.67;100454.13;5074845;27;45411;-69
2021/07/25 09:03:16;;;;;;;;;9.00;7.00;;;;;23.31;65.36;100458.28;5075299;27;45547;-69
2021/07/25 09:05:42;;;;;;;;;11.50;7.25;;;;;23.27;65.22;100450.69;5074354;27;47429;-69
2021/07/25 09:08:09;;;;;;;;;8.75;8.75;;;;;23.12;65.54;100451.22;5073878;28;45441;-69
2021/07/25 09:10:34;;;;;;;;;6.25;6.00;;;;;23.03;66.08;100460.22;5074551;28;45435;-69
2021/07/25 09:13:00;;;;;;;;;10.25;9.00;;;;;22.91;66.34;100464.94;5074315;27;45437;-69
2021/07/25 09:15:29;;;;;;;;;7.00;6.75;;;;;22.87;67.01;100470.75;5074934;27;45462;-69
2021/07/25 09:17:59;;;;;;;;;8.50;8.50;;;;;22.78;67.05;100468.97;5074515;28;45519;-69
2021/07/25 09:20:28;;;;;;;;;8.75;8.75;;;;;22.74;67.65;100476.44;5074384;27;45358;-69
2021/07/25 09:23:00;;;;;;;;;11.75;9.25;;;;;22.60;71.77;100472.47;5073995;28;45458;-68
2021/07/25 09:25:27;;;;;;;;;6.25;5.00;;;;;22.38;74.82;100475.53;5072169;27;46653;-69
2021/07/25 09:27:58;;;;;;;;;12.00;7.75;;;;;22.06;74.91;100474.06;5073934;27;46207;-69
2021/07/25 09:30:25;;;;;;;;;10.50;10.00;;;;;21.79;73.41;100477.53;5073658;28;45284;-69
2021/07/25 09:32:52;;;;;;;;;11.25;8.50;;;;;21.49;78.87;100499.13;5072156;28;45578;-69
2021/07/25 09:35:28;;;;;;;;;9.25;7.25;;;;;21.13;81.38;100487.28;5070777;27;46738;-69
2021/07/25 09:37:56;;;;;;;;;9.75;8.75;;;;;20.93;83.05;100479.22;5090921;27;45801;-70
2021/07/25 09:40:26;;;;;;;;;7.00;7.00;;;;;20.91;80.83;100475.03;5074009;27;45476;-69
2021/07/25 09:43:09;;;;;;;;;11.00;6.00;;;;;21.01;80.76;100467.88;5056665;27;45347;-69
2021/07/25 09:45:50;;;;;;;;;7.25;6.75;;;;;21.16;80.03;100474.47;5071444;28;45524;-69
2021/07/25 09:48:17;;;;;;;;;9.00;7.00;;;;;21.35;77.64;100469.19;5075052;27;45476;-69
2021/07/25 09:50:42;;;;;;;;;7.00;7.00;;;;;21.58;76.79;100467.03;5073400;28;45565;-70
2021/07/25 09:53:08;;;;;;;;;9.50;7.00;;;;;21.84;75.50;100474.44;5073970;27;45441;-69
2021/07/25 09:55:33;;;;;;;;;9.00;9.00;;;;;22.00;74.74;100455.94;5073063;27;52083;-70
2021/07/25 09:57:59;;;;;;;;;10.75;8.50;;;;;22.22;74.30;100467.28;5073381;27;45525;-69
2021/07/25 10:00:40;;;;;;;;;10.50;9.00;;;;;22.24;72.93;100462.63;5074326;27;51011;-69
2021/07/25 10:03:32;;;;;;;;;9.75;7.50;;;;;22.28;73.78;100459.50;5073331;28;45497;-69
2021/07/25 10:05:58;;;;;;;;;6.75;6.75;;;;;22.28;73.30;100456.81;5074711;28;45801;-69
2021/07/25 10:08:23;;;;;;;;;8.00;7.75;;;;;22.39;72.79;100458.47;5073345;27;45365;-69
2021/07/25 10:10:51;;;;;;;;;11.50;9.50;;;;;22.63;72.99;100460.59;5073193;27;45457;-69
2021/07/25 10:13:19;;;;;;;;;10.25;8.25;;;;;22.82;71.99;100457.78;5072678;27;45540;-69
2021/07/25 10:15:54;;;;;;;;;9.50;8.00;;;;;22.97;72.35;100460.81;5071492;28;48348;-69
2021/07/25 10:18:24;;;;;;;;;8.25;7.00;;;;;23.18;71.31;100456.00;5070288;27;45680;-70
2021/07/25 10:21:00;;;;;;;;;8.50;7.25;;;;;23.28;70.54;100455.03;5072104;28;45475;-70
2021/07/25 10:23:36;;;;;;;;;6.50;4.75;;;;;23.27;71.24;100453.38;5072046;27;45485;-70
2021/07/25 10:26:03;;;;;;;;;7.25;7.25;;;;;23.35;71.13;100453.44;5072998;27;46505;-70
2021/07/25 10:28:32;;;;;;;;;8.50;8.50;;;;;23.59;70.70;100440.19;5072377;27;45736;-70
2021/07/25 10:30:59;;;;;;;;;7.75;6.25;;;;;24.15;70.55;100454.16;5071665;28;45534;-70
2021/07/25 10:33:27;;;;;;;;;7.00;7.00;;;;;24.49;68.04;100450.66;5073846;27;45525;-71
2021/07/25 10:35:52;;;;;;;;;7.50;7.00;;;;;24.95;68.31;100443.84;5073259;27;45336;-70
2021/07/25 10:38:18;;;;;;;;;8.00;6.75;;;;;25.59;67.37;100452.16;5072597;28;45492;-70
2021/07/25 10:40:45;;;;;;;;;8.25;6.00;;;;;26.18;65.17;100453.53;5070990;27;45392;-68
2021/07/25 10:43:13;;;;;;;;;7.25;6.00;;;;;26.60;65.05;100441.56;5071160;27;45321;-68
2021/07/25 10:45:38;;;;;;;;;7.75;7.75;;;;;26.94;62.49;100441.22;5073084;27;45582;-68
2021/07/25 10:48:13;;;;;;;;;6.75;5.25;;;;;27.05;62.00;100437.25;5074476;27;45451;-68
2021/07/25 10:50:39;;;;;;;;;8.25;6.50;;;;;27.12;61.47;100434.69;5072586;28;45543;-68
2021/07/25 10:53:04;;;;;;;;;11.00;8.25;;;;;27.19;61.51;100438.34;5072829;27;45398;-68
2021/07/25 10:55:35;;;;;;;;;6.50;5.50;;;;;27.24;60.39;100427.84;5074701;27;46631;-71
2021/07/25 10:58:06;;;;;;;;;4.75;3.50;;;;;27.30;59.53;100425.28;5072571;28;45477;-71
2021/07/25 11:00:40;;;;;;;;;10.00;7.00;;;;;27.31;58.00;100429.66;5074021;27;45436;-70
2021/07/25 11:03:05;;;;;;;;;9.25;7.25;;;;;27.33;57.97;100429.47;5071414;28;45421;-70
2021/07/25 11:05:31;;;;;;;;;9.25;7.00;;;;;27.38;57.88;100426.22;5073341;27;46460;-70
2021/07/25 11:07:58;;;;;;;;;8.00;7.75;;;;;27.47;57.69;100422.44;5072295;27;45554;-70
2021/07/25 11:10:32;;;;;;;;;10.00;7.00;;;;;27.60;58.60;100425.31;5069738;28;45402;-71
2021/07/25 11:12:57;;;;;;;;;7.00;7.00;;;;;27.81;58.76;100416.53;5062388;28;45463;-70
2021/07/25 11:15:34;;;;;;;;;10.00;9.25;;;;;28.14;57.95;100411.59;5074150;28;45428;-70
2021/07/25 11:18:05;;;;;;;;;7.00;6.00;;;;;28.21;56.48;100420.59;5073486;28;45790;-71
2021/07/25 11:20:44;;;;;;;;;9.75;8.25;;;;;28.69;55.66;100414.75;5072572;27;45462;-70
2021/07/25 11:23:27;;;;;;;;;10.75;9.50;;;;;29.09;54.50;100413.31;5071159;27;45524;-71
2021/07/25 11:25:53;;;;;;;;;8.50;8.00;;;;;29.12;54.94;100402.09;5067321;28;46171;-72